createdAt,value
2018-11-03T00:00:41.269Z,17.26
2018-11-03T00:01:41.221Z,17.92
2018-11-03T00:02:41.188Z,18.77
2018-11-03T00:03:41.144Z,18.59
2018-11-03T00:04:41.099Z,18.96
2018-11-03T00:05:41.060Z,19.73
2018-11-03T00:06:41.012Z,20.29
2018-11-03T00:07:40.973Z,20.67
2018-11-03T00:08:40.931Z,20.96
2018-11-03T00:09:40.889Z,20.67
2018-11-03T00:10:40.851Z,22.00
2018-11-03T00:11:40.808Z,22.66
2018-11-03T00:12:40.765Z,22.66
2018-11-03T00:13:40.725Z,22.00
2018-11-03T00:14:40.679Z,22.00
2018-11-03T00:15:40.638Z,22.28
2018-11-03T00:16:40.598Z,22.28
2018-11-03T00:17:40.558Z,22.47
2018-11-03T00:18:40.512Z,22.09
2018-11-03T00:19:40.471Z,22.28
2018-11-03T00:20:40.429Z,22.76
2018-11-03T00:21:40.386Z,22.66
2018-11-03T00:22:40.351Z,22.66
2018-11-03T00:23:40.307Z,22.76
2018-11-03T00:24:40.265Z,23.04
2018-11-03T00:25:40.223Z,23.14
2018-11-03T00:26:40.177Z,23.43
2018-11-03T00:27:40.136Z,23.61
2018-11-03T00:28:40.098Z,23.33
2018-11-03T00:29:40.054Z,22.95
2018-11-03T00:30:40.016Z,22.76
2018-11-03T00:31:39.971Z,22.66
2018-11-03T00:32:39.927Z,23.04
2018-11-03T00:33:39.889Z,23.24
2018-11-03T00:34:39.850Z,23.04
2018-11-03T00:35:39.804Z,23.99
2018-11-03T00:36:39.762Z,24.56
2018-11-03T00:37:39.723Z,24.75
2018-11-03T00:38:39.674Z,25.79
2018-11-03T00:39:39.646Z,25.79
2018-11-03T00:40:39.698Z,26.84
2018-11-03T00:41:39.549Z,26.65
2018-11-03T00:42:39.528Z,27.40
2018-11-03T00:43:39.472Z,27.03
2018-11-03T00:44:39.427Z,26.65
2018-11-03T00:45:39.387Z,26.27
2018-11-03T00:46:39.385Z,25.79
2018-11-03T00:47:39.301Z,25.51
2018-11-03T00:48:39.259Z,25.23
2018-11-03T00:49:39.219Z,25.23
2018-11-03T00:50:39.172Z,25.51
2018-11-03T00:51:39.133Z,24.85
2018-11-03T00:52:39.090Z,23.99
2018-11-03T00:53:39.046Z,23.52
2018-11-03T00:54:39.015Z,23.14
2018-11-03T00:55:38.967Z,22.85
2018-11-03T00:56:38.924Z,22.28
2018-11-03T00:57:38.884Z,22.76
2018-11-03T00:58:38.837Z,24.28
2018-11-03T00:59:38.797Z,25.40
2018-11-03T01:00:38.755Z,25.60
2018-11-03T01:01:38.711Z,25.49
2018-11-03T01:02:38.675Z,25.21
2018-11-03T01:03:38.632Z,25.31
2018-11-03T01:04:38.586Z,23.69
2018-11-03T01:05:38.543Z,21.99
2018-11-03T01:06:38.508Z,20.19
2018-11-03T01:07:38.464Z,18.48
2018-11-03T01:08:38.420Z,17.35
2018-11-03T01:09:38.382Z,17.25
2018-11-03T01:10:38.334Z,17.07
2018-11-03T01:11:38.294Z,17.16
2018-11-03T01:12:38.252Z,16.87
2018-11-03T01:13:39.151Z,17.64
2018-11-03T01:14:38.169Z,17.16
2018-11-03T01:15:38.129Z,17.26
2018-11-03T01:16:38.088Z,17.26
2018-11-03T01:17:38.046Z,17.26
2018-11-03T01:18:38.000Z,17.92
2018-11-03T01:19:37.956Z,18.02
2018-11-03T01:20:37.918Z,17.83
2018-11-03T01:21:37.876Z,18.11
2018-11-03T01:22:37.831Z,18.40
2018-11-03T01:23:37.805Z,18.68
2018-11-03T01:24:38.533Z,18.96
2018-11-03T01:25:37.705Z,18.68
2018-11-03T01:26:37.666Z,20.96
2018-11-03T01:27:37.625Z,22.38
2018-11-03T01:28:37.584Z,23.80
2018-11-03T01:29:37.540Z,24.37
2018-11-03T01:30:37.498Z,24.18
2018-11-03T01:31:37.452Z,22.76
2018-11-03T01:32:37.480Z,21.33
2018-11-03T01:33:37.369Z,20.01
2018-11-03T01:34:37.329Z,18.39
2018-11-03T01:35:37.291Z,17.45
2018-11-03T01:36:37.240Z,17.72
2018-11-03T01:37:37.229Z,17.44
2018-11-03T01:38:37.162Z,18.01
2018-11-03T01:39:37.123Z,18.96
2018-11-03T01:40:37.079Z,19.71
2018-11-03T01:41:37.035Z,18.96
2018-11-03T01:42:36.992Z,18.77
2018-11-03T01:43:36.948Z,18.20
2018-11-03T01:44:36.905Z,18.20
2018-11-03T01:45:36.866Z,19.05
2018-11-03T01:46:36.825Z,18.77
2018-11-03T01:47:36.788Z,17.91
2018-11-03T01:48:36.743Z,16.97
2018-11-03T01:49:36.698Z,16.97
2018-11-03T01:50:36.655Z,16.97
2018-11-03T01:51:36.610Z,15.83
2018-11-03T01:52:37.388Z,15.17
2018-11-03T01:53:36.532Z,14.59
2018-11-03T01:54:36.486Z,14.31
2018-11-03T01:55:36.450Z,14.03
2018-11-03T01:56:37.057Z,13.75
2018-11-03T01:57:36.365Z,14.22
2018-11-03T01:58:36.320Z,14.31
2018-11-03T01:59:36.282Z,14.97
2018-11-03T02:00:36.240Z,15.17
2018-11-03T02:01:36.197Z,19.15
2018-11-03T02:02:36.151Z,19.71
2018-11-03T02:03:36.108Z,19.62
2018-11-03T02:04:36.064Z,18.86
2018-11-03T02:05:36.024Z,18.48
2018-11-03T02:06:35.984Z,17.44
2018-11-03T02:07:35.949Z,17.44
2018-11-03T02:08:35.896Z,17.35
2018-11-03T02:09:35.854Z,17.16
2018-11-03T02:10:35.815Z,16.20
2018-11-03T02:11:35.776Z,15.55
2018-11-03T02:12:35.733Z,15.07
2018-11-03T02:13:35.690Z,15.73
2018-11-03T02:14:35.659Z,16.97
2018-11-03T02:15:35.605Z,17.06
2018-11-03T02:16:35.562Z,18.39
2018-11-03T02:17:35.519Z,19.15
2018-11-03T02:18:35.479Z,20.09
2018-11-03T02:19:35.440Z,20.66
2018-11-03T02:20:35.408Z,21.04
2018-11-03T02:21:36.003Z,21.14
2018-11-03T02:22:36.259Z,19.81
2018-11-03T02:23:35.283Z,18.29
2018-11-03T02:24:35.228Z,17.16
2018-11-03T02:25:36.029Z,15.55
2018-11-03T02:26:35.139Z,14.50
2018-11-03T02:27:35.098Z,14.31
2018-11-03T02:28:35.052Z,13.65
2018-11-03T02:29:35.015Z,13.27
2018-11-03T02:30:35.770Z,12.70
2018-11-03T02:31:34.934Z,12.70
2018-11-03T02:32:34.890Z,12.79
2018-11-03T02:33:34.847Z,12.60
2018-11-03T02:34:34.835Z,12.51
2018-11-03T02:35:34.765Z,10.80
2018-11-03T02:36:34.719Z,9.38
2018-11-03T02:37:34.676Z,8.72
2018-11-03T02:38:35.546Z,7.39
2018-11-03T02:39:34.596Z,6.73
2018-11-03T02:40:34.545Z,6.25
2018-11-03T02:41:34.510Z,5.40
2018-11-03T02:42:34.466Z,5.21
2018-11-03T02:43:35.250Z,4.26
2018-11-03T02:44:34.383Z,3.88
2018-11-03T02:45:34.340Z,3.88
2018-11-03T02:46:34.295Z,3.69
2018-11-03T02:47:34.251Z,3.50
2018-11-03T02:48:34.212Z,3.41
2018-11-03T02:49:34.169Z,2.75
2018-11-03T02:50:34.130Z,2.27
2018-11-03T02:51:34.089Z,2.37
2018-11-03T02:52:34.045Z,2.37
2018-11-03T02:53:34.001Z,3.03
2018-11-03T02:54:33.957Z,2.84
2018-11-03T02:55:33.915Z,2.84
2018-11-03T02:56:33.880Z,2.75
2018-11-03T02:57:33.833Z,3.31
2018-11-03T02:58:33.789Z,3.03
2018-11-03T02:59:33.745Z,3.59
2018-11-03T03:00:33.701Z,3.41
2018-11-03T03:01:33.660Z,3.88
2018-11-03T03:02:33.622Z,4.45
2018-11-03T03:03:33.581Z,4.07
2018-11-03T03:04:33.539Z,3.69
2018-11-03T03:05:33.494Z,3.88
2018-11-03T03:06:33.450Z,3.59
2018-11-03T03:07:33.405Z,3.69
2018-11-03T03:08:33.364Z,3.50
2018-11-03T03:09:33.324Z,4.36
2018-11-03T03:10:33.284Z,4.36
2018-11-03T03:11:33.245Z,4.17
2018-11-03T03:12:33.195Z,4.83
2018-11-03T03:13:33.157Z,5.02
2018-11-03T03:14:33.114Z,5.30
2018-11-03T03:15:33.075Z,5.02
2018-11-03T03:16:33.030Z,4.45
2018-11-03T03:17:32.987Z,5.11
2018-11-03T03:18:32.945Z,4.93
2018-11-03T03:19:32.901Z,3.88
2018-11-03T03:20:32.857Z,3.59
2018-11-03T03:21:32.817Z,2.94
2018-11-03T03:22:32.776Z,3.41
2018-11-03T03:23:32.737Z,3.59
2018-11-03T03:24:32.692Z,3.78
2018-11-03T03:25:32.649Z,4.55
2018-11-03T03:26:32.604Z,5.21
2018-11-03T03:27:32.562Z,5.02
2018-11-03T03:28:32.525Z,5.40
2018-11-03T03:29:32.538Z,5.40
2018-11-03T03:30:32.434Z,5.30
2018-11-03T03:31:32.391Z,5.59
2018-11-03T03:32:32.350Z,5.97
2018-11-03T03:33:32.309Z,5.97
2018-11-03T03:34:32.269Z,5.30
2018-11-03T03:35:32.228Z,4.93
2018-11-03T03:36:32.185Z,5.40
2018-11-03T03:37:32.141Z,5.49
2018-11-03T03:38:32.098Z,5.68
2018-11-03T03:39:32.053Z,6.26
2018-11-03T03:40:32.012Z,6.16
2018-11-03T03:41:31.973Z,6.26
2018-11-03T03:42:31.931Z,7.01
2018-11-03T03:43:31.891Z,7.77
2018-11-03T03:44:31.841Z,7.77
2018-11-03T03:45:31.800Z,7.77
2018-11-03T03:46:31.761Z,8.72
2018-11-03T03:47:31.721Z,8.62
2018-11-03T03:48:31.679Z,8.34
2018-11-03T03:49:31.633Z,7.57
2018-11-03T03:50:31.589Z,7.48
2018-11-03T03:51:31.545Z,7.86
2018-11-03T04:06:36.221Z,6.35
2018-11-03T04:07:36.147Z,5.96
2018-11-03T04:08:36.090Z,6.25
2018-11-03T04:09:36.049Z,5.68
2018-11-03T04:10:35.994Z,4.83
2018-11-03T04:11:35.950Z,4.74
2018-11-03T04:12:35.905Z,4.07
2018-11-03T04:19:40.174Z,4.93
2018-11-03T04:20:40.097Z,3.97
2018-11-03T04:21:40.053Z,3.78
2018-11-03T04:22:40.858Z,3.97
2018-11-03T04:23:39.966Z,3.97
2018-11-03T04:24:39.917Z,4.55
2018-11-03T04:25:39.876Z,5.21
2018-11-03T04:26:39.833Z,5.11
2018-11-03T04:27:40.723Z,4.64
2018-11-03T04:28:39.751Z,4.55
2018-11-03T04:29:39.706Z,4.26
2018-11-03T04:30:39.662Z,4.45
2018-11-03T04:31:39.621Z,5.30
2018-11-03T04:32:39.573Z,7.01
2018-11-03T04:33:39.533Z,6.54
2018-11-03T04:34:39.493Z,7.10
2018-11-03T04:35:39.450Z,6.53
2018-11-03T04:36:39.401Z,7.10
2018-11-03T04:37:39.368Z,6.34
2018-11-03T04:38:39.319Z,5.77
2018-11-03T04:39:39.271Z,4.92
2018-11-03T04:40:39.236Z,4.35
2018-11-03T04:41:39.190Z,3.41
2018-11-03T04:42:39.148Z,2.93
2018-11-03T04:43:39.110Z,3.41
2018-11-03T04:44:39.059Z,4.07
2018-11-03T04:45:39.038Z,3.88
2018-11-03T04:46:38.977Z,3.97
2018-11-03T04:47:38.930Z,4.73
2018-11-03T04:48:38.893Z,4.92
2018-11-03T04:49:38.849Z,5.21
2018-11-03T04:50:38.803Z,4.83
2018-11-03T04:51:38.760Z,3.97
2018-11-03T04:52:38.751Z,3.97
2018-11-03T04:53:38.679Z,3.88
2018-11-03T04:54:38.635Z,4.55
2018-11-03T04:55:38.594Z,5.49
2018-11-03T04:56:38.547Z,7.57
2018-11-03T04:57:38.523Z,7.48
2018-11-03T04:58:38.462Z,5.40
2018-11-03T04:59:38.419Z,2.93
2018-11-03T05:00:38.383Z,1.42
2018-11-03T05:01:38.338Z,0.66
2018-11-03T05:02:38.292Z,0.76
2018-11-03T05:03:38.252Z,1.23
2018-11-03T05:04:39.206Z,0.85
2018-11-03T05:05:38.165Z,1.32
2018-11-03T05:06:38.123Z,1.23
2018-11-03T05:07:38.082Z,1.04
2018-11-03T05:08:38.891Z,0.00
2018-11-03T05:09:38.027Z,0.00
2018-11-03T05:10:38.078Z,0.00
2018-11-03T05:11:37.942Z,0.00
2018-11-03T05:12:37.867Z,0.00
2018-11-03T05:13:37.870Z,0.00
2018-11-03T05:14:37.780Z,0.00
2018-11-03T05:15:37.741Z,0.00
2018-11-03T05:16:37.692Z,0.00
2018-11-03T05:17:37.650Z,0.00
2018-11-03T05:18:38.622Z,0.00
2018-11-03T05:19:37.563Z,0.00
2018-11-03T05:20:37.527Z,0.00
2018-11-03T05:21:37.517Z,0.00
2018-11-03T05:22:37.439Z,0.00
2018-11-03T05:23:37.391Z,0.09
2018-11-03T05:24:37.357Z,0.00
2018-11-03T05:25:37.314Z,0.00
2018-11-03T05:26:37.268Z,0.00
2018-11-03T05:27:37.229Z,0.00
2018-11-03T05:28:37.178Z,0.00
2018-11-03T05:29:37.141Z,0.00
2018-11-03T05:30:37.093Z,0.00
2018-11-03T05:31:37.051Z,0.00
2018-11-03T05:32:37.017Z,0.00
2018-11-03T05:33:36.972Z,0.00
2018-11-03T05:34:36.925Z,0.19
2018-11-03T05:35:36.885Z,0.19
2018-11-03T05:36:36.844Z,0.00
2018-11-03T05:37:36.797Z,0.00
2018-11-03T05:38:36.754Z,0.00
2018-11-03T05:39:36.716Z,0.00
2018-11-03T05:40:36.664Z,0.00
2018-11-03T05:41:36.626Z,0.00
2018-11-03T05:42:36.581Z,0.00
2018-11-03T05:43:36.538Z,0.00
2018-11-03T05:44:36.505Z,0.00
2018-11-03T05:45:36.456Z,0.00
2018-11-03T05:46:36.538Z,0.00
2018-11-03T05:47:36.371Z,0.00
2018-11-03T05:48:36.326Z,0.00
2018-11-03T05:49:36.281Z,0.66
2018-11-03T05:50:36.239Z,1.51
2018-11-03T05:51:36.199Z,1.98
2018-11-03T05:52:36.160Z,2.17
2018-11-03T05:53:36.116Z,1.61
2018-11-03T05:54:36.076Z,1.23
2018-11-03T05:55:36.031Z,0.76
2018-11-03T05:56:35.987Z,0.66
2018-11-03T05:57:35.946Z,0.00
2018-11-03T05:58:35.905Z,0.00
2018-11-03T05:59:35.857Z,0.00
2018-11-03T06:00:35.812Z,0.00
2018-11-03T06:01:35.767Z,0.00
2018-11-03T06:02:35.761Z,0.28
2018-11-03T06:03:35.683Z,0.00
2018-11-03T06:04:35.643Z,0.00
2018-11-03T06:05:35.606Z,0.00
2018-11-03T06:06:35.559Z,0.00
2018-11-03T06:07:35.516Z,0.00
2018-11-03T06:08:35.486Z,0.00
2018-11-03T06:09:35.426Z,0.28
2018-11-03T06:10:35.391Z,0.47
2018-11-03T06:11:35.343Z,0.38
2018-11-03T06:12:35.299Z,0.76
2018-11-03T06:13:35.256Z,2.17
2018-11-03T06:14:35.211Z,2.93
2018-11-03T06:15:35.242Z,3.31
2018-11-03T06:16:35.131Z,3.50
2018-11-03T06:17:35.090Z,2.27
2018-11-03T06:18:35.046Z,1.70
2018-11-03T06:19:35.003Z,0.95
2018-11-03T06:20:34.963Z,1.04
2018-11-03T06:21:34.932Z,1.42
2018-11-03T06:22:34.948Z,1.23
2018-11-03T06:23:34.858Z,1.51
2018-11-03T06:24:34.788Z,1.23
2018-11-03T06:25:34.748Z,0.85
2018-11-03T06:26:34.701Z,0.66
2018-11-03T06:27:34.657Z,0.09
2018-11-03T06:28:34.616Z,0.00
2018-11-03T06:29:34.576Z,0.00
2018-11-03T06:30:34.533Z,0.00
2018-11-03T06:31:34.488Z,0.00
2018-11-03T06:32:34.444Z,0.00
2018-11-03T06:33:34.401Z,0.00
2018-11-03T06:34:34.356Z,0.00
2018-11-03T06:35:34.316Z,0.00
2018-11-03T06:36:34.274Z,0.00
2018-11-03T06:37:34.234Z,0.00
2018-11-03T06:38:34.190Z,0.00
2018-11-03T06:39:34.146Z,0.00
2018-11-03T06:40:34.101Z,0.00
2018-11-03T06:41:34.059Z,0.00
2018-11-03T06:42:34.019Z,0.00
2018-11-03T06:43:34.013Z,0.00
2018-11-03T06:44:33.931Z,0.00
2018-11-03T06:45:33.888Z,0.00
2018-11-03T06:46:33.913Z,0.00
2018-11-03T06:47:33.919Z,0.00
2018-11-03T06:48:33.760Z,0.00
2018-11-03T06:49:33.720Z,0.00
2018-11-03T06:50:33.677Z,0.00
2018-11-03T06:51:33.632Z,0.00
2018-11-03T06:52:33.589Z,0.95
2018-11-03T06:53:33.548Z,1.98
2018-11-03T06:54:33.501Z,3.59
2018-11-03T06:55:33.458Z,5.11
2018-11-03T06:56:33.418Z,6.54
2018-11-03T06:57:33.381Z,6.44
2018-11-03T06:58:33.329Z,6.53
2018-11-03T06:59:33.290Z,4.73
2018-11-03T07:00:33.253Z,3.31
2018-11-03T07:01:33.210Z,1.70
2018-11-03T07:02:33.165Z,0.47
2018-11-03T07:03:33.121Z,0.00
2018-11-03T07:04:33.076Z,0.00
2018-11-03T07:05:33.033Z,0.00
2018-11-03T07:06:32.990Z,0.00
2018-11-03T07:07:32.948Z,0.00
2018-11-03T07:08:32.908Z,0.00
2018-11-03T07:09:32.867Z,0.00
2018-11-03T07:10:32.825Z,0.00
2018-11-03T07:11:32.926Z,0.00
2018-11-03T07:12:32.887Z,0.00
2018-11-03T07:13:32.690Z,0.00
2018-11-03T07:14:32.655Z,0.00
2018-11-03T07:15:32.609Z,0.00
2018-11-03T07:16:32.564Z,0.00
2018-11-03T07:17:32.522Z,0.00
2018-11-03T07:18:32.478Z,0.00
2018-11-03T07:19:32.435Z,0.00
2018-11-03T07:20:32.395Z,0.00
2018-11-03T07:21:32.400Z,0.00
2018-11-03T07:22:32.400Z,0.00
2018-11-03T07:23:32.268Z,0.00
2018-11-03T07:24:32.228Z,0.00
2018-11-03T07:25:32.181Z,0.00
2018-11-03T07:26:32.136Z,0.00
2018-11-03T07:27:32.096Z,0.00
2018-11-03T07:28:32.055Z,0.00
2018-11-03T07:29:32.020Z,0.00
2018-11-03T07:30:31.965Z,0.00
2018-11-03T07:31:31.925Z,0.00
2018-11-03T07:32:31.888Z,0.00
2018-11-03T07:33:31.844Z,0.00
2018-11-03T07:34:31.801Z,0.00
2018-11-03T07:35:31.756Z,0.00
2018-11-03T07:36:31.712Z,0.00
2018-11-03T07:37:31.667Z,0.00
2018-11-03T07:38:32.560Z,0.00
2018-11-03T07:39:31.585Z,0.00
2018-11-03T07:40:31.545Z,0.00
2018-11-03T07:41:31.593Z,0.00
2018-11-03T07:42:31.555Z,0.00
2018-11-03T07:43:31.417Z,0.00
2018-11-03T07:44:31.372Z,0.00
2018-11-03T07:45:31.329Z,0.00
2018-11-03T07:46:31.973Z,0.00
2018-11-03T07:47:31.294Z,0.00
2018-11-03T07:48:31.279Z,0.00
2018-11-03T07:49:31.206Z,0.00
2018-11-03T07:50:31.116Z,0.00
2018-11-03T07:51:31.076Z,0.00
2018-11-03T07:52:31.037Z,0.00
2018-11-03T07:53:30.997Z,0.00
2018-11-03T07:54:31.010Z,0.00
2018-11-03T07:55:30.910Z,0.00
2018-11-03T07:56:30.866Z,0.00
2018-11-03T07:57:30.822Z,0.00
2018-11-03T07:58:30.779Z,0.00
2018-11-03T07:59:30.740Z,0.00
2018-11-03T08:00:30.720Z,0.00
2018-11-03T08:01:30.700Z,0.00
2018-11-03T08:02:30.614Z,0.00
2018-11-03T08:03:30.573Z,0.00
2018-11-03T08:04:30.533Z,0.00
2018-11-03T08:05:30.494Z,0.00
2018-11-03T08:06:30.450Z,0.00
2018-11-03T08:07:30.405Z,0.00
2018-11-03T08:08:30.368Z,0.00
2018-11-03T08:09:30.319Z,0.00
2018-11-03T08:10:30.277Z,0.00
2018-11-03T08:11:30.238Z,0.00
2018-11-03T08:12:30.196Z,0.00
2018-11-03T08:13:30.157Z,0.00
2018-11-03T08:14:30.114Z,0.00
2018-11-03T08:15:30.085Z,0.00
2018-11-03T08:16:30.028Z,0.00
2018-11-03T08:17:29.988Z,0.00
2018-11-03T08:18:29.952Z,0.00
2018-11-03T08:19:29.904Z,0.00
2018-11-03T08:20:29.864Z,0.38
2018-11-03T08:21:29.816Z,0.00
2018-11-03T08:22:29.774Z,0.00
2018-11-03T08:23:29.737Z,0.00
2018-11-03T08:24:29.697Z,0.00
2018-11-03T08:25:29.657Z,0.00
2018-11-03T08:26:29.634Z,0.00
2018-11-03T08:27:29.572Z,0.00
2018-11-03T08:28:29.532Z,0.00
2018-11-03T08:29:29.485Z,0.00
2018-11-03T08:30:29.444Z,0.00
2018-11-03T08:31:29.481Z,0.00
2018-11-03T08:32:29.367Z,0.47
2018-11-03T08:33:29.331Z,1.04
2018-11-03T08:34:29.277Z,2.84
2018-11-03T08:35:29.238Z,3.22
2018-11-03T08:36:29.199Z,3.51
2018-11-03T08:37:29.168Z,4.65
2018-11-03T08:38:29.119Z,5.12
2018-11-03T08:39:29.120Z,5.41
2018-11-03T08:40:29.032Z,6.07
2018-11-03T08:41:29.021Z,7.50
2018-11-03T08:42:28.966Z,7.50
2018-11-03T08:43:28.909Z,6.64
2018-11-03T08:44:28.869Z,6.17
2018-11-03T08:45:28.830Z,7.31
2018-11-03T08:46:28.788Z,7.68
2018-11-03T08:47:28.746Z,7.40
2018-11-03T08:48:28.711Z,7.78
2018-11-03T08:49:28.660Z,7.88
2018-11-03T08:50:28.623Z,7.12
2018-11-03T08:51:28.581Z,7.97
2018-11-03T08:52:28.540Z,8.45
2018-11-03T08:53:28.505Z,8.73
2018-11-03T08:54:28.454Z,9.97
2018-11-03T08:55:28.416Z,10.35
2018-11-03T08:56:28.376Z,10.64
2018-11-03T08:57:28.336Z,11.02
2018-11-03T08:58:28.298Z,11.96
2018-11-03T08:59:28.263Z,11.68
2018-11-03T09:00:28.209Z,10.35
2018-11-03T09:01:28.171Z,11.68
2018-11-03T09:02:28.125Z,11.96
2018-11-03T09:03:28.086Z,10.25
2018-11-03T09:04:28.048Z,10.54
2018-11-03T09:05:28.015Z,11.87
2018-11-03T09:06:27.962Z,14.91
2018-11-03T09:07:27.943Z,15.48
2018-11-03T09:08:27.885Z,15.77
2018-11-03T09:09:27.845Z,15.48
2018-11-03T09:10:27.804Z,14.34
2018-11-03T09:11:27.760Z,13.39
2018-11-03T09:12:27.718Z,11.87
2018-11-03T09:13:27.698Z,10.83
2018-11-03T09:14:27.694Z,11.02
2018-11-03T09:15:27.597Z,10.92
2018-11-03T09:16:27.556Z,11.58
2018-11-03T09:17:27.546Z,11.49
2018-11-03T09:18:27.482Z,13.10
2018-11-03T09:19:27.434Z,14.06
2018-11-03T09:20:27.391Z,18.14
2018-11-03T09:21:27.360Z,17.95
2018-11-03T09:22:27.365Z,18.99
2018-11-03T09:23:27.272Z,18.80
2018-11-03T09:24:27.233Z,18.99
2018-11-03T09:25:27.193Z,18.81
2018-11-03T09:26:27.144Z,19.76
2018-11-03T09:27:27.106Z,21.67
2018-11-03T09:28:27.068Z,24.52
2018-11-03T09:29:27.028Z,24.13
2018-11-03T09:30:26.987Z,23.38
2018-11-03T09:31:26.946Z,23.57
2018-11-03T09:32:26.902Z,24.52
2018-11-03T09:33:26.861Z,25.46
2018-11-03T09:34:26.881Z,25.85
2018-11-03T09:35:26.790Z,25.46
2018-11-03T09:36:26.742Z,24.42
2018-11-03T09:37:26.703Z,24.42
2018-11-03T09:38:26.735Z,25.27
2018-11-03T09:39:26.618Z,28.31
2018-11-03T09:40:26.582Z,28.51
2018-11-03T09:41:26.542Z,28.41
2018-11-03T09:42:26.501Z,30.41
2018-11-03T09:43:26.506Z,35.27
2018-11-03T09:44:26.418Z,36.32
2018-11-03T09:45:26.382Z,34.30
2018-11-03T09:46:26.339Z,33.56
2018-11-03T09:47:26.295Z,35.25
2018-11-03T09:48:26.258Z,37.18
2018-11-03T09:49:26.219Z,35.83
2018-11-03T09:50:26.235Z,36.96
2018-11-03T09:51:26.138Z,39.25
2018-11-03T09:52:26.095Z,39.74
2018-11-03T09:53:26.052Z,39.53
2018-11-03T09:54:26.017Z,40.86
2018-11-03T09:55:25.974Z,40.67
2018-11-03T09:56:26.005Z,39.91
2018-11-03T09:57:25.897Z,39.07
2018-11-03T09:58:25.856Z,38.79
2018-11-03T09:59:25.812Z,38.31
2018-11-03T10:00:25.775Z,37.37
2018-11-03T10:01:25.738Z,37.55
2018-11-03T10:02:25.693Z,38.41
2018-11-03T10:03:25.658Z,38.60
2018-11-03T10:04:25.609Z,38.31
2018-11-03T10:19:53.770Z,40.22
2018-11-03T10:20:53.699Z,40.31
2018-11-03T10:21:53.673Z,44.31
2018-11-03T10:22:53.679Z,46.30
2018-11-03T10:23:53.574Z,46.49
2018-11-03T10:24:53.526Z,45.45
2018-11-03T10:25:53.486Z,45.83
2018-11-03T10:26:53.445Z,46.68
2018-11-03T10:27:53.404Z,45.45
2018-11-03T10:36:42.227Z,48.68
2018-11-03T10:37:42.168Z,47.82
2018-11-03T10:38:42.122Z,47.82
2018-11-03T10:39:42.078Z,49.91
2018-11-03T10:40:42.047Z,51.06
2018-11-03T10:41:42.000Z,51.62
2018-11-03T10:42:41.961Z,50.51
2018-11-03T10:43:41.922Z,51.08
2018-11-03T10:44:41.873Z,52.89
2018-11-03T10:45:41.834Z,55.83
2018-11-03T10:46:41.799Z,57.65
2018-11-03T10:47:41.781Z,58.12
2018-11-03T10:48:41.712Z,58.03
2018-11-03T10:49:41.673Z,56.98
2018-11-03T10:50:41.636Z,60.12
2018-11-03T10:51:41.593Z,60.88
2018-11-03T10:52:41.557Z,64.59
2018-11-03T10:53:41.598Z,63.45
2018-11-03T10:54:41.478Z,63.92
2018-11-03T10:55:41.439Z,66.02
2018-11-03T10:56:41.392Z,61.55
2018-11-03T10:57:41.353Z,60.21
2018-11-03T10:58:41.314Z,63.17
2018-11-03T10:59:41.271Z,63.83
2018-11-03T11:00:41.238Z,65.16
2018-11-03T11:01:41.197Z,63.35
2018-11-03T11:02:41.155Z,62.21
2018-11-03T11:03:41.169Z,63.29
2018-11-03T11:04:41.083Z,65.38
2018-11-03T11:05:41.036Z,66.33
2018-11-03T11:06:41.001Z,65.86
2018-11-03T11:07:40.959Z,63.10
2018-11-03T11:08:40.914Z,64.81
2018-11-03T11:09:40.886Z,64.24
2018-11-03T11:10:40.848Z,63.48
2018-11-03T11:11:40.800Z,65.86
2018-11-03T11:12:40.761Z,68.43
2018-11-03T11:13:40.720Z,65.29
2018-11-03T11:14:40.692Z,65.29
2018-11-03T11:15:40.683Z,64.62
2018-11-03T11:16:40.700Z,67.19
2018-11-03T11:17:40.565Z,67.86
2018-11-03T11:18:40.522Z,67.00
2018-11-03T11:19:40.487Z,67.57
2018-11-03T11:20:40.440Z,66.81
2018-11-03T11:21:40.403Z,66.62
2018-11-03T11:22:40.400Z,68.05
2018-11-03T11:23:40.339Z,68.43
2018-11-03T11:24:40.338Z,70.81
2018-11-03T11:25:40.247Z,66.24
2018-11-03T11:26:40.208Z,63.48
2018-11-03T11:27:40.171Z,65.48
2018-11-03T11:28:40.126Z,67.29
2018-11-03T11:29:40.100Z,65.95
2018-11-03T11:30:40.050Z,64.18
2018-11-03T11:31:40.016Z,70.05
2018-11-03T11:32:40.016Z,68.81
2018-11-03T11:33:39.935Z,66.37
2018-11-03T11:34:39.892Z,64.37
2018-11-03T11:35:39.850Z,64.56
2018-11-03T11:36:39.832Z,65.89
2018-11-03T11:37:39.823Z,68.75
2018-11-03T11:38:39.801Z,68.65
2018-11-03T11:39:39.701Z,63.70
2018-11-03T11:40:39.656Z,66.27
2018-11-03T11:41:39.622Z,68.56
2018-11-03T11:42:39.580Z,67.22
2018-11-03T11:43:39.537Z,68.94
2018-11-03T11:44:39.506Z,67.99
2018-11-03T11:45:39.465Z,65.42
2018-11-03T11:46:39.425Z,68.37
2018-11-03T11:47:39.388Z,66.37
2018-11-03T11:48:39.345Z,67.22
2018-11-03T11:49:39.310Z,67.41
2018-11-03T11:50:39.284Z,66.46
2018-11-03T11:51:39.232Z,67.03
2018-11-03T11:52:39.196Z,69.70
2018-11-03T11:53:39.152Z,67.22
2018-11-03T11:54:39.115Z,66.18
2018-11-03T11:55:39.073Z,69.99
2018-11-03T11:56:39.037Z,71.51
2018-11-03T11:57:38.997Z,69.99
2018-11-03T11:58:38.959Z,69.42
2018-11-03T11:59:38.921Z,71.98
2018-11-03T12:00:38.958Z,70.75
2018-11-03T12:01:38.839Z,69.99
2018-11-03T12:02:38.802Z,71.42
2018-11-03T12:03:38.760Z,71.61
2018-11-03T12:04:38.730Z,72.85
2018-11-03T12:05:38.687Z,72.85
2018-11-03T12:06:38.648Z,69.32
2018-11-03T12:07:38.605Z,69.70
2018-11-03T12:08:38.570Z,69.89
2018-11-03T12:09:38.530Z,68.84
2018-11-03T12:10:38.491Z,66.27
2018-11-03T12:11:38.488Z,64.56
2018-11-03T12:12:38.409Z,67.22
2018-11-03T12:13:38.372Z,68.75
2018-11-03T12:14:38.333Z,68.56
2018-11-03T12:15:38.303Z,66.85
2018-11-03T12:16:38.259Z,62.85
2018-11-03T12:17:38.219Z,64.28
2018-11-03T12:18:38.181Z,66.85
2018-11-03T12:19:38.143Z,62.85
2018-11-03T12:20:38.098Z,68.75
2018-11-03T12:21:38.061Z,68.75
2018-11-03T12:22:38.025Z,71.61
2018-11-03T12:23:37.989Z,67.55
2018-11-03T12:24:37.943Z,70.78
2018-11-03T12:25:37.989Z,74.02
2018-11-03T12:26:37.867Z,75.45
2018-11-03T12:27:37.825Z,76.18
2018-11-03T12:28:37.792Z,73.03
2018-11-03T12:29:37.752Z,69.70
2018-11-03T12:30:37.713Z,68.27
2018-11-03T12:31:37.704Z,67.03
2018-11-03T12:32:37.632Z,71.61
2018-11-03T12:33:37.595Z,70.37
2018-11-03T12:34:37.559Z,71.98
2018-11-03T12:35:37.515Z,70.94
2018-11-03T12:36:37.482Z,69.79
2018-11-03T12:37:37.447Z,68.46
2018-11-03T12:38:37.401Z,67.41
2018-11-03T12:39:37.360Z,69.99
2018-11-03T12:40:37.356Z,69.42
2018-11-03T12:41:37.286Z,67.89
2018-11-03T12:42:37.248Z,67.51
2018-11-03T12:43:37.211Z,70.37
2018-11-03T12:44:37.165Z,70.65
2018-11-03T12:45:37.131Z,70.37
2018-11-03T12:46:37.091Z,70.84
2018-11-03T12:47:37.049Z,68.75
2018-11-03T12:48:37.035Z,68.18
2018-11-03T12:49:36.976Z,72.05
2018-11-03T12:50:36.939Z,72.05
2018-11-03T12:51:36.900Z,70.52
2018-11-03T12:52:36.855Z,69.10
2018-11-03T12:53:36.817Z,69.70
2018-11-03T12:54:36.781Z,69.04
2018-11-03T12:55:36.744Z,71.00
2018-11-03T12:56:36.700Z,69.38
2018-11-03T12:57:36.666Z,71.00
2018-11-03T12:58:36.624Z,68.71
2018-11-03T12:59:36.586Z,70.62
2018-11-03T13:00:36.549Z,70.81
2018-11-03T13:01:36.523Z,72.08
2018-11-03T13:02:36.469Z,72.81
2018-11-03T13:03:36.431Z,72.27
2018-11-03T13:04:45.043Z,72.08
2018-11-03T13:06:40.802Z,75.51
2018-11-03T13:07:40.736Z,76.84
2018-11-03T13:08:40.699Z,77.13
2018-11-03T13:09:40.804Z,78.27
2018-11-03T13:10:40.627Z,79.32
2018-11-03T13:11:40.584Z,79.41
2018-11-03T13:12:40.540Z,79.89
2018-11-03T13:13:40.506Z,82.46
2018-11-03T13:16:13.561Z,82.75
2018-11-03T13:17:12.508Z,81.47
2018-11-03T13:18:13.419Z,81.98
2018-11-03T13:19:12.426Z,80.94
2018-11-03T13:20:12.389Z,83.56
2018-11-03T13:21:12.352Z,82.80
2018-11-03T13:22:12.315Z,81.79
2018-11-03T13:23:12.271Z,81.47
2018-11-03T13:24:12.232Z,81.60
2018-11-03T13:25:12.192Z,80.65
2018-11-03T13:26:12.152Z,80.84
2018-11-03T13:27:12.122Z,81.51
2018-11-03T13:28:12.080Z,82.46
2018-11-03T13:29:12.038Z,82.65
2018-11-03T13:30:12.001Z,82.56
2018-11-03T13:31:11.956Z,82.65
2018-11-03T13:32:11.920Z,83.09
2018-11-03T13:33:11.881Z,83.47
2018-11-03T13:34:11.840Z,83.80
2018-11-03T13:35:11.837Z,83.03
2018-11-03T13:36:11.764Z,83.65
2018-11-03T13:37:11.724Z,83.70
2018-11-03T13:38:11.682Z,81.66
2018-11-03T13:39:11.649Z,82.46
2018-11-03T13:40:11.610Z,83.28
2018-11-03T13:41:11.569Z,82.46
2018-11-03T13:42:11.532Z,81.85
2018-11-03T13:43:11.487Z,79.66
2018-11-03T13:44:11.450Z,78.04
2018-11-03T13:45:11.411Z,78.94
2018-11-03T13:46:11.369Z,78.42
2018-11-03T13:47:11.359Z,79.09
2018-11-03T13:48:11.300Z,77.70
2018-11-03T13:49:11.258Z,77.80